sensor_id;sensor_type;location;lat;lon;timestamp;P1;durP1;ratioP1;P2;durP2;ratioP2
68985;SDS011;56035;37.534;-122.308;2022-12-10T00:01:46;3.27;;;0.90;;
68985;SDS011;56035;37.534;-122.308;2022-12-10T00:04:14;4.27;;;1.00;;
68985;SDS011;56035;37.534;-122.308;2022-12-10T00:06:41;5.80;;;0.93;;
68985;SDS011;56035;37.534;-122.308;2022-12-10T00:09:12;5.00;;;0.60;;
68985;SDS011;56035;37.534;-122.308;2022-12-10T00:11:40;3.50;;;0.80;;
68985;SDS011;56035;37.534;-122.308;2022-12-10T00:14:06;2.35;;;0.73;;
68985;SDS011;56035;37.534;-122.308;2022-12-10T00:16:33;6.15;;;1.00;;
68985;SDS011;56035;37.534;-122.308;2022-12-10T00:21:28;3.87;;;0.90;;
68985;SDS011;56035;37.534;-122.308;2022-12-10T00:23:56;4.10;;;0.90;;
68985;SDS011;56035;37.534;-122.308;2022-12-10T00:28:51;4.22;;;0.95;;
68985;SDS011;56035;37.534;-122.308;2022-12-10T00:31:19;4.70;;;1.03;;
68985;SDS011;56035;37.534;-122.308;2022-12-10T00:33:47;5.17;;;1.07;;
68985;SDS011;56035;37.534;-122.308;2022-12-10T00:36:15;4.97;;;1.17;;
68985;SDS011;56035;37.534;-122.308;2022-12-10T00:38:45;4.30;;;1.13;;
68985;SDS011;56035;37.534;-122.308;2022-12-10T00:41:12;3.57;;;0.90;;
68985;SDS011;56035;37.534;-122.308;2022-12-10T00:43:39;3.67;;;0.65;;
68985;SDS011;56035;37.534;-122.308;2022-12-10T00:46:06;6.97;;;1.03;;
68985;SDS011;56035;37.534;-122.308;2022-12-10T00:48:32;2.85;;;0.90;;
68985;SDS011;56035;37.534;-122.308;2022-12-10T00:51:00;6.15;;;1.35;;
68985;SDS011;56035;37.534;-122.308;2022-12-10T00:53:30;6.00;;;1.40;;
68985;SDS011;56035;37.534;-122.308;2022-12-10T00:55:58;4.03;;;1.03;;
68985;SDS011;56035;37.534;-122.308;2022-12-10T00:58:28;5.95;;;1.20;;
68985;SDS011;56035;37.534;-122.308;2022-12-10T01:01:12;5.77;;;1.47;;
68985;SDS011;56035;37.534;-122.308;2022-12-10T01:03:39;3.77;;;1.10;;
68985;SDS011;56035;37.534;-122.308;2022-12-10T01:08:36;3.67;;;0.87;;
68985;SDS011;56035;37.534;-122.308;2022-12-10T01:11:02;3.15;;;1.20;;
68985;SDS011;56035;37.534;-122.308;2022-12-10T01:13:29;2.90;;;0.85;;
68985;SDS011;56035;37.534;-122.308;2022-12-10T01:15:55;3.92;;;1.40;;
68985;SDS011;56035;37.534;-122.308;2022-12-10T01:18:21;4.20;;;1.25;;
68985;SDS011;56035;37.534;-122.308;2022-12-10T01:20:47;3.83;;;1.10;;
68985;SDS011;56035;37.534;-122.308;2022-12-10T01:23:13;4.13;;;1.00;;
68985;SDS011;56035;37.534;-122.308;2022-12-10T01:25:39;3.28;;;0.88;;
68985;SDS011;56035;37.534;-122.308;2022-12-10T01:28:06;4.97;;;0.98;;
68985;SDS011;56035;37.534;-122.308;2022-12-10T01:30:32;5.75;;;0.95;;
68985;SDS011;56035;37.534;-122.308;2022-12-10T01:32:58;3.83;;;1.17;;
68985;SDS011;56035;37.534;-122.308;2022-12-10T01:35:24;7.75;;;1.92;;
68985;SDS011;56035;37.534;-122.308;2022-12-10T01:37:50;11.43;;;1.48;;
68985;SDS011;56035;37.534;-122.308;2022-12-10T01:40:17;8.75;;;1.73;;
68985;SDS011;56035;37.534;-122.308;2022-12-10T01:42:43;7.57;;;1.98;;
68985;SDS011;56035;37.534;-122.308;2022-12-10T01:45:10;8.98;;;2.08;;
68985;SDS011;56035;37.534;-122.308;2022-12-10T01:47:38;11.20;;;1.73;;
68985;SDS011;56035;37.534;-122.308;2022-12-10T01:50:05;7.28;;;2.40;;
68985;SDS011;56035;37.534;-122.308;2022-12-10T01:52:32;9.43;;;2.10;;
68985;SDS011;56035;37.534;-122.308;2022-12-10T01:54:58;16.17;;;2.85;;
68985;SDS011;56035;37.534;-122.308;2022-12-10T01:57:25;4.50;;;1.30;;
68985;SDS011;56035;37.534;-122.308;2022-12-10T01:59:57;9.83;;;1.70;;
68985;SDS011;56035;37.534;-122.308;2022-12-10T02:02:36;5.20;;;1.50;;
68985;SDS011;56035;37.534;-122.308;2022-12-10T02:10:40;9.40;;;2.03;;
68985;SDS011;56035;37.534;-122.308;2022-12-10T02:13:22;8.10;;;1.80;;
68985;SDS011;56035;37.534;-122.308;2022-12-10T02:17:01;8.57;;;1.83;;
68985;SDS011;56035;37.534;-122.308;2022-12-10T02:19:00;11.95;;;2.00;;
68985;SDS011;56035;37.534;-122.308;2022-12-10T02:21:36;8.52;;;1.60;;
68985;SDS011;56035;37.534;-122.308;2022-12-10T02:24:07;15.73;;;1.90;;
68985;SDS011;56035;37.534;-122.308;2022-12-10T02:27:20;8.10;;;2.03;;
68985;SDS011;56035;37.534;-122.308;2022-12-10T02:29:44;9.87;;;2.20;;
68985;SDS011;56035;37.534;-122.308;2022-12-10T02:32:17;9.70;;;1.80;;
68985;SDS011;56035;37.534;-122.308;2022-12-10T02:34:50;9.37;;;1.60;;
68985;SDS011;56035;37.534;-122.308;2022-12-10T02:37:24;12.33;;;2.70;;
68985;SDS011;56035;37.534;-122.308;2022-12-10T02:39:56;9.57;;;2.07;;
68985;SDS011;56035;37.534;-122.308;2022-12-10T02:42:25;8.53;;;1.80;;
68985;SDS011;56035;37.534;-122.308;2022-12-10T02:44:55;10.90;;;1.83;;
68985;SDS011;56035;37.534;-122.308;2022-12-10T02:47:22;10.10;;;2.10;;
68985;SDS011;56035;37.534;-122.308;2022-12-10T02:49:50;9.67;;;1.87;;
68985;SDS011;56035;37.534;-122.308;2022-12-10T02:52:20;9.83;;;2.03;;
68985;SDS011;56035;37.534;-122.308;2022-12-10T02:54:48;9.27;;;2.00;;
68985;SDS011;56035;37.534;-122.308;2022-12-10T03:00:02;6.70;;;1.83;;
68985;SDS011;56035;37.534;-122.308;2022-12-10T03:05:36;19.67;;;3.10;;
68985;SDS011;56035;37.534;-122.308;2022-12-10T03:13:28;7.43;;;1.30;;
68985;SDS011;56035;37.534;-122.308;2022-12-10T03:16:00;7.17;;;1.40;;
68985;SDS011;56035;37.534;-122.308;2022-12-10T03:18:29;5.93;;;1.33;;
68985;SDS011;56035;37.534;-122.308;2022-12-10T03:21:01;8.20;;;1.40;;
68985;SDS011;56035;37.534;-122.308;2022-12-10T03:23:29;6.00;;;1.30;;
68985;SDS011;56035;37.534;-122.308;2022-12-10T03:26:00;5.47;;;1.67;;
68985;SDS011;56035;37.534;-122.308;2022-12-10T03:28:30;5.53;;;1.20;;
68985;SDS011;56035;37.534;-122.308;2022-12-10T03:31:00;5.83;;;1.10;;
68985;SDS011;56035;37.534;-122.308;2022-12-10T03:33:27;8.20;;;1.30;;
68985;SDS011;56035;37.534;-122.308;2022-12-10T03:35:54;7.82;;;1.63;;
68985;SDS011;56035;37.534;-122.308;2022-12-10T03:38:22;6.10;;;1.80;;
68985;SDS011;56035;37.534;-122.308;2022-12-10T03:40:48;7.38;;;1.50;;
68985;SDS011;56035;37.534;-122.308;2022-12-10T03:43:14;6.03;;;1.08;;
68985;SDS011;56035;37.534;-122.308;2022-12-10T03:45:40;9.15;;;1.83;;
68985;SDS011;56035;37.534;-122.308;2022-12-10T03:48:07;7.40;;;1.40;;
68985;SDS011;56035;37.534;-122.308;2022-12-10T03:50:33;9.77;;;2.28;;
68985;SDS011;56035;37.534;-122.308;2022-12-10T03:52:59;6.55;;;1.30;;
68985;SDS011;56035;37.534;-122.308;2022-12-10T03:55:25;4.72;;;1.13;;
68985;SDS011;56035;37.534;-122.308;2022-12-10T03:57:51;5.75;;;1.30;;
68985;SDS011;56035;37.534;-122.308;2022-12-10T04:00:18;8.65;;;1.63;;
68985;SDS011;56035;37.534;-122.308;2022-12-10T04:02:44;7.78;;;1.35;;
68985;SDS011;56035;37.534;-122.308;2022-12-10T04:05:10;7.43;;;1.65;;
68985;SDS011;56035;37.534;-122.308;2022-12-10T04:07:37;6.93;;;1.23;;
68985;SDS011;56035;37.534;-122.308;2022-12-10T04:10:03;10.35;;;1.95;;
68985;SDS011;56035;37.534;-122.308;2022-12-10T04:12:30;10.20;;;2.17;;
68985;SDS011;56035;37.534;-122.308;2022-12-10T04:14:56;6.72;;;1.75;;
68985;SDS011;56035;37.534;-122.308;2022-12-10T04:17:41;7.30;;;1.40;;
68985;SDS011;56035;37.534;-122.308;2022-12-10T04:20:07;5.25;;;1.50;;
68985;SDS011;56035;37.534;-122.308;2022-12-10T04:22:56;7.10;;;1.30;;
68985;SDS011;56035;37.534;-122.308;2022-12-10T04:25:41;5.70;;;1.40;;
68985;SDS011;56035;37.534;-122.308;2022-12-10T04:28:25;8.33;;;1.47;;
68985;SDS011;56035;37.534;-122.308;2022-12-10T04:30:51;8.65;;;1.33;;
68985;SDS011;56035;37.534;-122.308;2022-12-10T04:33:18;4.55;;;1.08;;
68985;SDS011;56035;37.534;-122.308;2022-12-10T04:35:44;5.88;;;1.35;;
68985;SDS011;56035;37.534;-122.308;2022-12-10T04:38:10;6.55;;;1.30;;
68985;SDS011;56035;37.534;-122.308;2022-12-10T04:40:36;4.05;;;1.42;;
68985;SDS011;56035;37.534;-122.308;2022-12-10T04:43:23;9.07;;;1.80;;
68985;SDS011;56035;37.534;-122.308;2022-12-10T04:45:49;6.18;;;1.40;;
68985;SDS011;56035;37.534;-122.308;2022-12-10T04:48:15;9.07;;;1.52;;
68985;SDS011;56035;37.534;-122.308;2022-12-10T04:50:41;5.97;;;1.52;;
68985;SDS011;56035;37.534;-122.308;2022-12-10T04:53:07;7.95;;;1.65;;
68985;SDS011;56035;37.534;-122.308;2022-12-10T04:55:34;5.80;;;1.05;;
68985;SDS011;56035;37.534;-122.308;2022-12-10T04:58:00;5.78;;;1.08;;
68985;SDS011;56035;37.534;-122.308;2022-12-10T05:02:53;4.13;;;1.20;;
68985;SDS011;56035;37.534;-122.308;2022-12-10T05:05:20;6.03;;;1.50;;
68985;SDS011;56035;37.534;-122.308;2022-12-10T05:07:46;5.45;;;1.15;;
68985;SDS011;56035;37.534;-122.308;2022-12-10T05:10:12;2.53;;;0.88;;
68985;SDS011;56035;37.534;-122.308;2022-12-10T05:12:38;4.28;;;1.30;;
68985;SDS011;56035;37.534;-122.308;2022-12-10T05:15:04;3.75;;;1.25;;
68985;SDS011;56035;37.534;-122.308;2022-12-10T05:17:32;3.00;;;1.40;;
68985;SDS011;56035;37.534;-122.308;2022-12-10T05:19:58;4.60;;;1.53;;
68985;SDS011;56035;37.534;-122.308;2022-12-10T05:22:25;2.78;;;1.25;;
68985;SDS011;56035;37.534;-122.308;2022-12-10T05:25:09;4.70;;;1.10;;
68985;SDS011;56035;37.534;-122.308;2022-12-10T05:27:35;6.18;;;1.33;;
68985;SDS011;56035;37.534;-122.308;2022-12-10T05:30:02;3.67;;;1.13;;
68985;SDS011;56035;37.534;-122.308;2022-12-10T05:32:28;3.67;;;1.02;;
68985;SDS011;56035;37.534;-122.308;2022-12-10T05:34:54;5.22;;;1.25;;
68985;SDS011;56035;37.534;-122.308;2022-12-10T05:37:21;4.55;;;1.10;;
68985;SDS011;56035;37.534;-122.308;2022-12-10T05:39:47;3.70;;;1.20;;
68985;SDS011;56035;37.534;-122.308;2022-12-10T05:42:13;4.45;;;1.05;;
68985;SDS011;56035;37.534;-122.308;2022-12-10T05:44:40;4.43;;;1.10;;
68985;SDS011;56035;37.534;-122.308;2022-12-10T05:47:06;4.38;;;1.50;;
68985;SDS011;56035;37.534;-122.308;2022-12-10T05:49:32;7.20;;;2.42;;
68985;SDS011;56035;37.534;-122.308;2022-12-10T05:51:58;8.73;;;2.03;;
68985;SDS011;56035;37.534;-122.308;2022-12-10T05:54:24;5.72;;;1.92;;
68985;SDS011;56035;37.534;-122.308;2022-12-10T05:56:50;5.95;;;1.88;;
68985;SDS011;56035;37.534;-122.308;2022-12-10T05:59:17;4.93;;;1.63;;
68985;SDS011;56035;37.534;-122.308;2022-12-10T06:01:43;6.00;;;1.88;;
68985;SDS011;56035;37.534;-122.308;2022-12-10T06:04:09;7.55;;;2.28;;
68985;SDS011;56035;37.534;-122.308;2022-12-10T06:06:36;5.75;;;1.90;;
68985;SDS011;56035;37.534;-122.308;2022-12-10T06:09:05;8.60;;;2.17;;
68985;SDS011;56035;37.534;-122.308;2022-12-10T06:11:32;6.80;;;2.07;;
68985;SDS011;56035;37.534;-122.308;2022-12-10T06:13:59;5.55;;;1.98;;
68985;SDS011;56035;37.534;-122.308;2022-12-10T06:16:27;8.80;;;2.37;;
68985;SDS011;56035;37.534;-122.308;2022-12-10T06:21:20;6.63;;;1.40;;
68985;SDS011;56035;37.534;-122.308;2022-12-10T06:23:47;3.85;;;1.52;;
68985;SDS011;56035;37.534;-122.308;2022-12-10T06:26:20;6.53;;;1.90;;
68985;SDS011;56035;37.534;-122.308;2022-12-10T06:28:48;4.17;;;1.30;;
68985;SDS011;56035;37.534;-122.308;2022-12-10T06:31:15;3.97;;;1.00;;
68985;SDS011;56035;37.534;-122.308;2022-12-10T06:33:42;4.30;;;1.00;;
68985;SDS011;56035;37.534;-122.308;2022-12-10T06:36:09;4.22;;;0.95;;
68985;SDS011;56035;37.534;-122.308;2022-12-10T06:38:37;4.07;;;1.00;;
68985;SDS011;56035;37.534;-122.308;2022-12-10T06:41:04;5.05;;;0.95;;
68985;SDS011;56035;37.534;-122.308;2022-12-10T06:43:31;6.47;;;0.90;;
68985;SDS011;56035;37.534;-122.308;2022-12-10T06:45:58;3.60;;;0.98;;
68985;SDS011;56035;37.534;-122.308;2022-12-10T06:48:24;4.28;;;1.15;;
68985;SDS011;56035;37.534;-122.308;2022-12-10T06:50:50;5.82;;;1.00;;
68985;SDS011;56035;37.534;-122.308;2022-12-10T06:53:16;8.85;;;2.15;;
68985;SDS011;56035;37.534;-122.308;2022-12-10T06:55:43;3.03;;;0.70;;
68985;SDS011;56035;37.534;-122.308;2022-12-10T06:58:09;4.15;;;0.82;;
68985;SDS011;56035;37.534;-122.308;2022-12-10T07:00:35;4.18;;;0.63;;
68985;SDS011;56035;37.534;-122.308;2022-12-10T07:03:01;5.13;;;0.70;;
68985;SDS011;56035;37.534;-122.308;2022-12-10T07:05:27;3.05;;;0.80;;
68985;SDS011;56035;37.534;-122.308;2022-12-10T07:07:53;2.03;;;0.70;;
68985;SDS011;56035;37.534;-122.308;2022-12-10T07:10:20;5.85;;;1.33;;
68985;SDS011;56035;37.534;-122.308;2022-12-10T07:12:46;5.03;;;1.02;;
68985;SDS011;56035;37.534;-122.308;2022-12-10T07:15:12;3.70;;;0.98;;
68985;SDS011;56035;37.534;-122.308;2022-12-10T07:17:38;6.30;;;1.00;;
68985;SDS011;56035;37.534;-122.308;2022-12-10T07:20:05;3.78;;;0.70;;
68985;SDS011;56035;37.534;-122.308;2022-12-10T07:22:32;4.27;;;0.80;;
68985;SDS011;56035;37.534;-122.308;2022-12-10T07:24:58;5.32;;;0.95;;
68985;SDS011;56035;37.534;-122.308;2022-12-10T07:27:24;5.13;;;1.00;;
68985;SDS011;56035;37.534;-122.308;2022-12-10T07:29:50;6.18;;;1.05;;
68985;SDS011;56035;37.534;-122.308;2022-12-10T07:32:17;2.03;;;0.60;;
68985;SDS011;56035;37.534;-122.308;2022-12-10T07:34:43;5.47;;;0.90;;
68985;SDS011;56035;37.534;-122.308;2022-12-10T07:37:09;3.72;;;0.60;;
68985;SDS011;56035;37.534;-122.308;2022-12-10T07:39:35;1.52;;;0.50;;
68985;SDS011;56035;37.534;-122.308;2022-12-10T07:42:01;2.83;;;0.45;;
68985;SDS011;56035;37.534;-122.308;2022-12-10T07:44:28;3.55;;;0.60;;
68985;SDS011;56035;37.534;-122.308;2022-12-10T07:46:54;5.00;;;0.50;;
68985;SDS011;56035;37.534;-122.308;2022-12-10T07:49:21;3.50;;;1.10;;
68985;SDS011;56035;37.534;-122.308;2022-12-10T07:51:48;3.30;;;0.70;;
68985;SDS011;56035;37.534;-122.308;2022-12-10T07:54:15;2.20;;;0.40;;
68985;SDS011;56035;37.534;-122.308;2022-12-10T07:56:43;1.83;;;0.50;;
68985;SDS011;56035;37.534;-122.308;2022-12-10T07:59:09;4.63;;;1.10;;
68985;SDS011;56035;37.534;-122.308;2022-12-10T08:01:35;3.45;;;0.57;;
68985;SDS011;56035;37.534;-122.308;2022-12-10T08:04:02;3.05;;;0.90;;
68985;SDS011;56035;37.534;-122.308;2022-12-10T08:06:28;4.88;;;0.60;;
68985;SDS011;56035;37.534;-122.308;2022-12-10T08:08:55;3.05;;;0.57;;
68985;SDS011;56035;37.534;-122.308;2022-12-10T08:11:23;4.53;;;0.80;;
68985;SDS011;56035;37.534;-122.308;2022-12-10T08:13:49;3.17;;;0.55;;
68985;SDS011;56035;37.534;-122.308;2022-12-10T08:16:17;3.25;;;0.40;;
68985;SDS011;56035;37.534;-122.308;2022-12-10T08:18:45;3.67;;;0.60;;
68985;SDS011;56035;37.534;-122.308;2022-12-10T08:21:15;2.30;;;0.50;;
68985;SDS011;56035;37.534;-122.308;2022-12-10T08:23:44;2.93;;;0.70;;
68985;SDS011;56035;37.534;-122.308;2022-12-10T08:26:17;5.53;;;0.70;;
68985;SDS011;56035;37.534;-122.308;2022-12-10T08:28:46;4.37;;;1.33;;
68985;SDS011;56035;37.534;-122.308;2022-12-10T08:31:13;3.33;;;0.60;;
68985;SDS011;56035;37.534;-122.308;2022-12-10T08:33:40;2.33;;;0.50;;
68985;SDS011;56035;37.534;-122.308;2022-12-10T08:36:07;2.63;;;0.43;;
68985;SDS011;56035;37.534;-122.308;2022-12-10T08:38:35;4.17;;;0.80;;
68985;SDS011;56035;37.534;-122.308;2022-12-10T08:41:09;2.95;;;0.70;;
68985;SDS011;56035;37.534;-122.308;2022-12-10T08:43:37;3.33;;;0.60;;
68985;SDS011;56035;37.534;-122.308;2022-12-10T08:46:04;5.32;;;0.70;;
68985;SDS011;56035;37.534;-122.308;2022-12-10T08:48:31;2.83;;;0.73;;
68985;SDS011;56035;37.534;-122.308;2022-12-10T08:50:58;2.57;;;0.50;;
68985;SDS011;56035;37.534;-122.308;2022-12-10T08:53:24;4.82;;;0.85;;
68985;SDS011;56035;37.534;-122.308;2022-12-10T08:55:51;3.42;;;1.20;;
68985;SDS011;56035;37.534;-122.308;2022-12-10T08:58:18;4.30;;;0.70;;
68985;SDS011;56035;37.534;-122.308;2022-12-10T09:00:45;2.97;;;0.60;;
68985;SDS011;56035;37.534;-122.308;2022-12-10T09:03:12;2.63;;;0.93;;
68985;SDS011;56035;37.534;-122.308;2022-12-10T09:05:39;4.85;;;1.15;;
68985;SDS011;56035;37.534;-122.308;2022-12-10T09:08:06;2.65;;;0.50;;
68985;SDS011;56035;37.534;-122.308;2022-12-10T09:10:32;2.20;;;0.50;;
68985;SDS011;56035;37.534;-122.308;2022-12-10T09:12:58;2.90;;;0.55;;
68985;SDS011;56035;37.534;-122.308;2022-12-10T09:15:24;2.65;;;0.43;;
68985;SDS011;56035;37.534;-122.308;2022-12-10T09:17:50;2.08;;;0.82;;
68985;SDS011;56035;37.534;-122.308;2022-12-10T09:20:17;4.60;;;0.60;;
68985;SDS011;56035;37.534;-122.308;2022-12-10T09:22:43;2.38;;;0.65;;
68985;SDS011;56035;37.534;-122.308;2022-12-10T09:25:09;1.92;;;0.50;;
68985;SDS011;56035;37.534;-122.308;2022-12-10T09:27:55;2.33;;;0.40;;
68985;SDS011;56035;37.534;-122.308;2022-12-10T09:30:21;2.15;;;0.55;;
68985;SDS011;56035;37.534;-122.308;2022-12-10T09:32:48;2.25;;;0.50;;
68985;SDS011;56035;37.534;-122.308;2022-12-10T09:35:14;2.70;;;0.47;;
68985;SDS011;56035;37.534;-122.308;2022-12-10T09:37:40;2.50;;;0.45;;
68985;SDS011;56035;37.534;-122.308;2022-12-10T09:40:06;2.47;;;0.80;;
68985;SDS011;56035;37.534;-122.308;2022-12-10T09:42:47;1.43;;;0.40;;
68985;SDS011;56035;37.534;-122.308;2022-12-10T09:45:29;2.90;;;0.47;;
68985;SDS011;56035;37.534;-122.308;2022-12-10T09:48:10;2.27;;;0.60;;
68985;SDS011;56035;37.534;-122.308;2022-12-10T09:53:33;2.53;;;0.50;;
68985;SDS011;56035;37.534;-122.308;2022-12-10T09:56:02;2.77;;;0.50;;
68985;SDS011;56035;37.534;-122.308;2022-12-10T09:58:29;2.07;;;0.50;;
68985;SDS011;56035;37.534;-122.308;2022-12-10T10:01:02;2.33;;;0.70;;
68985;SDS011;56035;37.534;-122.308;2022-12-10T10:03:31;1.10;;;0.40;;
68985;SDS011;56035;37.534;-122.308;2022-12-10T10:06:03;2.30;;;0.50;;
68985;SDS011;56035;37.534;-122.308;2022-12-10T10:08:37;2.07;;;0.40;;
68985;SDS011;56035;37.534;-122.308;2022-12-10T10:11:24;1.73;;;0.40;;
68985;SDS011;56035;37.534;-122.308;2022-12-10T10:14:01;2.23;;;0.30;;
68985;SDS011;56035;37.534;-122.308;2022-12-10T10:16:33;1.67;;;0.40;;
68985;SDS011;56035;37.534;-122.308;2022-12-10T10:19:14;1.17;;;0.50;;
68985;SDS011;56035;37.534;-122.308;2022-12-10T10:21:44;1.50;;;0.40;;
68985;SDS011;56035;37.534;-122.308;2022-12-10T10:24:15;1.97;;;0.30;;
68985;SDS011;56035;37.534;-122.308;2022-12-10T10:26:43;2.43;;;0.50;;
68985;SDS011;56035;37.534;-122.308;2022-12-10T10:29:17;1.77;;;0.40;;
68985;SDS011;56035;37.534;-122.308;2022-12-10T10:31:45;2.37;;;0.40;;
68985;SDS011;56035;37.534;-122.308;2022-12-10T10:34:17;1.42;;;0.60;;
68985;SDS011;56035;37.534;-122.308;2022-12-10T10:36:45;1.33;;;0.40;;
68985;SDS011;56035;37.534;-122.308;2022-12-10T10:41:41;1.63;;;0.30;;
68985;SDS011;56035;37.534;-122.308;2022-12-10T10:46:54;2.63;;;0.40;;
68985;SDS011;56035;37.534;-122.308;2022-12-10T10:52:12;1.33;;;0.40;;
68985;SDS011;56035;37.534;-122.308;2022-12-10T10:54:42;2.03;;;0.50;;
68985;SDS011;56035;37.534;-122.308;2022-12-10T10:59:36;1.80;;;0.30;;
68985;SDS011;56035;37.534;-122.308;2022-12-10T11:04:49;2.20;;;0.30;;
68985;SDS011;56035;37.534;-122.308;2022-12-10T11:07:22;0.50;;;0.20;;
68985;SDS011;56035;37.534;-122.308;2022-12-10T11:09:52;5.37;;;0.40;;
68985;SDS011;56035;37.534;-122.308;2022-12-10T11:12:39;1.00;;;0.23;;
68985;SDS011;56035;37.534;-122.308;2022-12-10T11:15:39;1.27;;;0.40;;
68985;SDS011;56035;37.534;-122.308;2022-12-10T11:18:03;0.87;;;0.20;;
68985;SDS011;56035;37.534;-122.308;2022-12-10T11:20:55;3.17;;;0.30;;
68985;SDS011;56035;37.534;-122.308;2022-12-10T11:23:26;1.60;;;0.30;;
68985;SDS011;56035;37.534;-122.308;2022-12-10T11:26:01;2.60;;;0.40;;
68985;SDS011;56035;37.534;-122.308;2022-12-10T11:31:33;2.27;;;0.60;;
68985;SDS011;56035;37.534;-122.308;2022-12-10T11:34:26;1.33;;;0.60;;
68985;SDS011;56035;37.534;-122.308;2022-12-10T11:37:25;2.13;;;0.40;;
68985;SDS011;56035;37.534;-122.308;2022-12-10T11:42:55;0.90;;;0.33;;
68985;SDS011;56035;37.534;-122.308;2022-12-10T11:45:57;0.47;;;0.23;;
68985;SDS011;56035;37.534;-122.308;2022-12-10T11:57:48;1.33;;;0.37;;
68985;SDS011;56035;37.534;-122.308;2022-12-10T12:00:22;1.63;;;0.20;;
68985;SDS011;56035;37.534;-122.308;2022-12-10T12:05:31;1.30;;;0.27;;
68985;SDS011;56035;37.534;-122.308;2022-12-10T12:17:34;3.60;;;0.30;;
68985;SDS011;56035;37.534;-122.308;2022-12-10T12:19:37;2.47;;;0.30;;
68985;SDS011;56035;37.534;-122.308;2022-12-10T12:22:51;1.20;;;0.20;;
68985;SDS011;56035;37.534;-122.308;2022-12-10T12:31:38;2.72;;;0.50;;
68985;SDS011;56035;37.534;-122.308;2022-12-10T12:33:50;3.83;;;0.60;;
68985;SDS011;56035;37.534;-122.308;2022-12-10T12:36:26;1.43;;;0.40;;
68985;SDS011;56035;37.534;-122.308;2022-12-10T12:39:01;4.00;;;0.53;;
68985;SDS011;56035;37.534;-122.308;2022-12-10T12:44:28;2.50;;;0.50;;
68985;SDS011;56035;37.534;-122.308;2022-12-10T12:47:26;1.60;;;0.70;;
68985;SDS011;56035;37.534;-122.308;2022-12-10T12:53:08;1.67;;;0.60;;
68985;SDS011;56035;37.534;-122.308;2022-12-10T13:01:16;1.73;;;0.30;;
68985;SDS011;56035;37.534;-122.308;2022-12-10T13:03:53;1.50;;;0.60;;
68985;SDS011;56035;37.534;-122.308;2022-12-10T13:06:23;0.70;;;0.33;;
68985;SDS011;56035;37.534;-122.308;2022-12-10T13:09:31;1.97;;;0.60;;
68985;SDS011;56035;37.534;-122.308;2022-12-10T13:11:40;0.77;;;0.30;;
68985;SDS011;56035;37.534;-122.308;2022-12-10T13:14:33;0.90;;;0.40;;
68985;SDS011;56035;37.534;-122.308;2022-12-10T13:17:07;3.20;;;0.50;;
68985;SDS011;56035;37.534;-122.308;2022-12-10T13:19:58;2.53;;;0.47;;
68985;SDS011;56035;37.534;-122.308;2022-12-10T13:23:02;2.72;;;0.50;;
68985;SDS011;56035;37.534;-122.308;2022-12-10T13:36:36;0.60;;;0.20;;
68985;SDS011;56035;37.534;-122.308;2022-12-10T13:49:59;0.67;;;0.33;;
68985;SDS011;56035;37.534;-122.308;2022-12-10T13:55:38;0.70;;;0.40;;
68985;SDS011;56035;37.534;-122.308;2022-12-10T14:06:37;0.73;;;0.33;;
68985;SDS011;56035;37.534;-122.308;2022-12-10T14:09:17;0.57;;;0.20;;
68985;SDS011;56035;37.534;-122.308;2022-12-10T14:11:57;1.30;;;0.50;;
68985;SDS011;56035;37.534;-122.308;2022-12-10T14:14:34;0.40;;;0.20;;
68985;SDS011;56035;37.534;-122.308;2022-12-10T14:17:10;2.73;;;0.50;;
68985;SDS011;56035;37.534;-122.308;2022-12-10T14:19:41;0.47;;;0.13;;
68985;SDS011;56035;37.534;-122.308;2022-12-10T14:22:16;0.00;;;0.00;;
68985;SDS011;56035;37.534;-122.308;2022-12-10T14:24:45;0.00;;;0.00;;
68985;SDS011;56035;37.534;-122.308;2022-12-10T14:27:17;0.17;;;0.00;;
68985;SDS011;56035;37.534;-122.308;2022-12-10T14:30:14;2.33;;;0.00;;
68985;SDS011;56035;37.534;-122.308;2022-12-10T14:32:41;0.47;;;0.00;;
68985;SDS011;56035;37.534;-122.308;2022-12-10T14:37:39;0.00;;;0.00;;
68985;SDS011;56035;37.534;-122.308;2022-12-10T14:40:09;0.83;;;0.00;;
68985;SDS011;56035;37.534;-122.308;2022-12-10T14:42:50;0.00;;;0.00;;
68985;SDS011;56035;37.534;-122.308;2022-12-10T14:45:22;0.17;;;0.03;;
68985;SDS011;56035;37.534;-122.308;2022-12-10T14:47:49;1.02;;;0.00;;
68985;SDS011;56035;37.534;-122.308;2022-12-10T14:50:16;0.20;;;0.00;;
68985;SDS011;56035;37.534;-122.308;2022-12-10T14:55:14;0.13;;;0.00;;
68985;SDS011;56035;37.534;-122.308;2022-12-10T14:57:43;0.53;;;0.10;;
68985;SDS011;56035;37.534;-122.308;2022-12-10T15:00:15;0.63;;;0.00;;
68985;SDS011;56035;37.534;-122.308;2022-12-10T15:02:48;0.00;;;0.00;;
68985;SDS011;56035;37.534;-122.308;2022-12-10T15:05:23;0.03;;;0.00;;
68985;SDS011;56035;37.534;-122.308;2022-12-10T15:07:56;0.63;;;0.00;;
68985;SDS011;56035;37.534;-122.308;2022-12-10T15:10:32;0.10;;;0.00;;
68985;SDS011;56035;37.534;-122.308;2022-12-10T15:13:07;0.00;;;0.00;;
68985;SDS011;56035;37.534;-122.308;2022-12-10T15:15:42;0.03;;;0.00;;
68985;SDS011;56035;37.534;-122.308;2022-12-10T15:18:18;0.00;;;0.00;;
68985;SDS011;56035;37.534;-122.308;2022-12-10T15:23:41;0.10;;;0.00;;
68985;SDS011;56035;37.534;-122.308;2022-12-10T15:26:27;0.00;;;0.00;;
68985;SDS011;56035;37.534;-122.308;2022-12-10T15:31:55;0.27;;;0.00;;
68985;SDS011;56035;37.534;-122.308;2022-12-10T15:34:25;0.00;;;0.00;;
68985;SDS011;56035;37.534;-122.308;2022-12-10T15:36:54;0.00;;;0.00;;
68985;SDS011;56035;37.534;-122.308;2022-12-10T15:39:27;1.07;;;0.00;;
68985;SDS011;56035;37.534;-122.308;2022-12-10T15:42:00;0.00;;;0.00;;
68985;SDS011;56035;37.534;-122.308;2022-12-10T15:44:41;0.00;;;0.00;;
68985;SDS011;56035;37.534;-122.308;2022-12-10T15:47:18;0.30;;;0.10;;
68985;SDS011;56035;37.534;-122.308;2022-12-10T15:49:47;0.87;;;0.00;;
68985;SDS011;56035;37.534;-122.308;2022-12-10T15:52:15;1.77;;;0.33;;
68985;SDS011;56035;37.534;-122.308;2022-12-10T15:54:53;0.60;;;0.07;;
68985;SDS011;56035;37.534;-122.308;2022-12-10T15:57:21;0.00;;;0.00;;
68985;SDS011;56035;37.534;-122.308;2022-12-10T15:59:50;1.67;;;0.10;;
68985;SDS011;56035;37.534;-122.308;2022-12-10T16:05:11;0.20;;;0.03;;
68985;SDS011;56035;37.534;-122.308;2022-12-10T16:07:38;1.33;;;0.10;;
68985;SDS011;56035;37.534;-122.308;2022-12-10T16:10:05;0.40;;;0.08;;
68985;SDS011;56035;37.534;-122.308;2022-12-10T16:12:32;0.63;;;0.00;;
68985;SDS011;56035;37.534;-122.308;2022-12-10T16:15:01;1.07;;;0.10;;
68985;SDS011;56035;37.534;-122.308;2022-12-10T16:17:29;0.20;;;0.00;;
68985;SDS011;56035;37.534;-122.308;2022-12-10T16:19:58;0.28;;;0.10;;
68985;SDS011;56035;37.534;-122.308;2022-12-10T16:22:35;0.83;;;0.17;;
68985;SDS011;56035;37.534;-122.308;2022-12-10T16:25:02;1.20;;;0.35;;
68985;SDS011;56035;37.534;-122.308;2022-12-10T16:27:28;1.75;;;0.20;;
68985;SDS011;56035;37.534;-122.308;2022-12-10T16:29:58;8.13;;;1.03;;
68985;SDS011;56035;37.534;-122.308;2022-12-10T16:32:25;1.07;;;0.20;;
68985;SDS011;56035;37.534;-122.308;2022-12-10T16:34:51;1.42;;;0.20;;
68985;SDS011;56035;37.534;-122.308;2022-12-10T16:37:18;2.53;;;0.30;;
68985;SDS011;56035;37.534;-122.308;2022-12-10T16:39:45;1.47;;;0.20;;
68985;SDS011;56035;37.534;-122.308;2022-12-10T16:42:11;2.45;;;0.47;;
68985;SDS011;56035;37.534;-122.308;2022-12-10T16:44:38;1.95;;;0.40;;